Time;durP1;ratioP1;P1;durP2;ratioP2;P2;SDS_P1;SDS_P2;PMS_P1;PMS_P2;Temp;Humidity;BMP_temperature;BMP_pressure;BME280_temperature;BME280_humidity;BME280_pressure;Samples;Min_cycle;Max_cycle;Signal;HPM_P1;HPM_P2
2022/05/18 00:00:19;;;;;;;17.38;5.85;;;;;;;15.78;75.31;101788.06;5091897;28;20464;-72
2022/05/18 00:02:45;;;;;;;12.68;5.45;;;;;;;15.69;75.83;101783.94;5091627;28;20040;-72
2022/05/18 00:05:10;;;;;;;21.65;5.95;;;;;;;15.70;75.94;101788.31;5090795;28;20081;-72
2022/05/18 00:07:36;;;;;;;16.63;6.50;;;;;;;15.74;75.67;101792.56;5091644;28;20069;-72
2022/05/18 00:10:01;;;;;;;13.88;5.07;;;;;;;15.71;76.18;101783.91;5091849;28;20033;-72
2022/05/18 00:12:27;;;;;;;16.30;6.32;;;;;;;15.67;76.40;101797.13;5091035;28;20095;-72
2022/05/18 00:14:53;;;;;;;12.27;5.63;;;;;;;15.67;76.23;101793.66;5091699;28;20403;-72
2022/05/18 00:17:18;;;;;;;21.48;6.18;;;;;;;15.57;76.42;101790.41;5091508;28;20114;-72
2022/05/18 00:19:43;;;;;;;17.63;6.05;;;;;;;15.58;76.99;101802.63;5090722;28;20107;-72
2022/05/18 00:22:09;;;;;;;13.98;5.55;;;;;;;15.57;77.21;101802.69;5091780;28;20031;-72
2022/05/18 00:24:35;;;;;;;17.88;6.47;;;;;;;15.59;77.31;101804.34;5091261;28;20020;-72
2022/05/18 00:27:03;;;;;;;15.10;6.03;;;;;;;15.62;76.59;101801.63;5091247;28;20023;-72
2022/05/18 00:29:33;;;;;;;13.43;5.93;;;;;;;15.60;76.84;101798.19;5091611;28;20024;-72
2022/05/18 00:31:58;;;;;;;15.30;6.00;;;;;;;15.52;77.00;101805.44;5091784;28;20031;-72
2022/05/18 00:34:24;;;;;;;14.18;6.18;;;;;;;15.46;77.04;101793.31;5090726;28;20044;-72
2022/05/18 00:36:49;;;;;;;13.95;6.15;;;;;;;15.53;77.15;101799.28;5091310;28;20036;-72
2022/05/18 00:39:14;;;;;;;20.55;6.03;;;;;;;15.46;77.39;101797.72;5091265;28;20483;-72
2022/05/18 00:41:40;;;;;;;15.57;5.85;;;;;;;15.36;77.73;101804.13;5090500;28;20055;-72
2022/05/18 00:44:06;;;;;;;13.63;6.10;;;;;;;15.36;77.80;101812.88;5091684;28;20077;-72
2022/05/18 00:46:31;;;;;;;11.05;5.70;;;;;;;15.33;77.78;101794.56;5091097;28;20035;-72
2022/05/18 00:48:57;;;;;;;21.40;6.63;;;;;;;15.44;77.65;101808.28;5090790;28;20032;-72
2022/05/18 00:51:34;;;;;;;10.88;6.07;;;;;;;15.38;77.94;101807.59;5091208;28;20435;-72
2022/05/18 00:54:17;;;;;;;12.70;5.90;;;;;;;15.28;78.50;101808.75;5091026;28;20568;-72
2022/05/18 00:56:50;;;;;;;14.52;5.65;;;;;;;15.29;78.40;101803.44;5090962;28;20387;-72
2022/05/18 00:59:18;;;;;;;;;;;;;;;15.35;74.92;101803.28;5093323;28;20028;-72
2022/05/18 01:01:44;;;;;;;11.35;6.20;;;;;;;15.27;78.11;101796.50;5093936;28;20378;-72
2022/05/18 01:04:12;;;;;;;13.52;5.90;;;;;;;15.30;78.53;101801.69;5094414;28;20039;-72
2022/05/18 01:06:45;;;;;;;18.55;6.43;;;;;;;15.32;78.16;101799.88;5094607;28;20479;-72
2022/05/18 01:09:24;;;;;;;14.50;6.65;;;;;;;15.29;78.39;101808.69;5093832;28;20425;-72
2022/05/18 01:11:50;;;;;;;17.23;6.18;;;;;;;15.25;78.68;101801.81;5094716;28;20253;-72
2022/05/18 01:14:30;;;;;;;15.05;6.57;;;;;;;15.27;78.14;101805.28;5094527;28;20020;-72
2022/05/18 01:16:56;;;;;;;14.57;6.68;;;;;;;15.22;79.07;101801.91;5093818;28;20476;-71
2022/05/18 01:19:35;;;;;;;15.35;6.68;;;;;;;15.21;78.79;101801.03;5094665;28;20030;-72
2022/05/18 01:22:21;;;;;;;14.68;6.32;;;;;;;15.20;78.83;101804.59;5094151;28;20027;-72
2022/05/18 01:25:29;;;;;;;12.65;5.82;;;;;;;15.17;78.61;101803.78;5094331;28;20035;-72
2022/05/18 01:27:57;;;;;;;15.55;6.25;;;;;;;15.07;80.20;101792.66;5083111;28;20035;-72
2022/05/18 01:30:22;;;;;;;12.25;5.72;;;;;;;15.08;80.48;101796.19;5093556;28;20032;-72
2022/05/18 01:32:52;;;;;;;14.00;6.15;;;;;;;15.05;80.88;101805.00;5094193;28;20528;-72
2022/05/18 01:35:21;;;;;;;11.07;6.60;;;;;;;14.99;81.14;101799.91;5094091;28;20047;-72
2022/05/18 01:37:47;;;;;;;14.27;6.47;;;;;;;14.99;81.45;101802.53;5093059;28;20494;-72
2022/05/18 01:40:47;;;;;;;13.05;6.28;;;;;;;15.01;80.04;101811.22;5094173;28;20032;-72
2022/05/18 01:43:35;;;;;;;14.48;5.97;;;;;;;14.98;80.48;101809.53;5052591;28;20399;-72
2022/05/18 01:46:04;;;;;;;11.85;6.30;;;;;;;14.92;81.59;101795.72;5094290;28;20036;-72
2022/05/18 01:48:37;;;;;;;13.20;6.53;;;;;;;14.95;81.56;101808.75;5093981;28;20123;-72
2022/05/18 01:51:05;;;;;;;13.48;7.10;;;;;;;14.87;82.03;101797.59;5093349;28;20079;-72
2022/05/18 01:53:32;;;;;;;14.80;6.93;;;;;;;14.88;82.23;101809.84;5093491;28;20147;-72
2022/05/18 01:55:57;;;;;;;8.98;6.25;;;;;;;14.83;82.21;101785.44;5093915;28;20115;-72
2022/05/18 01:58:23;;;;;;;12.05;6.30;;;;;;;14.89;82.41;101803.66;5092861;28;20111;-72
2022/05/18 02:00:50;;;;;;;11.73;6.88;;;;;;;14.82;82.71;101792.47;5093568;28;20020;-71
2022/05/18 02:03:16;;;;;;;13.90;7.32;;;;;;;14.83;83.01;101803.81;5093447;28;20044;-72
2022/05/18 02:05:42;;;;;;;15.77;7.63;;;;;;;14.83;83.37;101801.19;5092833;28;20061;-72
2022/05/18 02:08:08;;;;;;;11.50;7.60;;;;;;;14.84;83.27;101805.53;5093812;28;20032;-72
2022/05/18 02:10:34;;;;;;;12.88;7.50;;;;;;;14.85;83.15;101807.28;5091976;28;20384;-72
2022/05/18 02:13:00;;;;;;;15.25;7.60;;;;;;;14.90;82.95;101802.75;5092736;28;20028;-72
2022/05/18 02:15:25;;;;;;;14.93;8.15;;;;;;;14.87;83.56;101798.44;5093507;28;20031;-72
2022/05/18 02:17:51;;;;;;;10.70;7.88;;;;;;;14.91;83.23;101802.75;5077571;28;20063;-71
2022/05/18 02:20:17;;;;;;;12.98;8.10;;;;;;;14.91;83.23;101805.38;5072304;28;20029;-71
2022/05/18 02:22:43;;;;;;;10.80;8.00;;;;;;;14.94;83.20;101801.78;5072970;28;20367;-71
2022/05/18 02:25:08;;;;;;;11.48;7.43;;;;;;;14.94;83.14;101797.41;5073189;28;20020;-72
2022/05/18 02:27:34;;;;;;;13.43;8.18;;;;;;;14.92;83.61;101793.94;5071836;28;20182;-72
2022/05/18 02:30:00;;;;;;;13.55;7.55;;;;;;;14.97;83.54;101789.41;5073039;28;20479;-72
2022/05/18 02:32:26;;;;;;;16.08;8.65;;;;;;;14.97;83.91;101789.41;5072091;28;20107;-72
2022/05/18 02:34:51;;;;;;;16.70;9.15;;;;;;;15.03;83.84;101788.41;5072749;28;20103;-72
2022/05/18 02:37:16;;;;;;;12.68;8.38;;;;;;;15.08;83.45;101793.53;5072617;28;20037;-72
2022/05/18 02:39:41;;;;;;;11.68;7.93;;;;;;;15.13;82.72;101789.88;5071746;28;20550;-72
2022/05/18 02:42:07;;;;;;;14.27;7.75;;;;;;;15.12;83.48;101792.56;5072819;28;20031;-71
2022/05/18 02:44:32;;;;;;;15.25;8.02;;;;;;;15.07;83.59;101797.91;5072330;28;20465;-71
2022/05/18 02:46:59;;;;;;;14.32;8.02;;;;;;;15.10;83.46;101805.72;5072215;28;20384;-72
2022/05/18 02:49:26;;;;;;;12.82;8.48;;;;;;;15.13;83.39;101804.78;5072519;28;20059;-72
2022/05/18 02:51:54;;;;;;;13.13;8.48;;;;;;;15.11;83.81;101798.72;5072462;28;20059;-71
2022/05/18 02:57:05;;;;;;;17.30;9.05;;;;;;;15.14;83.40;101793.34;5072678;28;20136;-72
2022/05/18 02:59:31;;;;;;;11.95;8.73;;;;;;;15.09;83.88;101797.88;5071960;28;20530;-72
2022/05/18 03:01:56;;;;;;;12.38;8.10;;;;;;;15.03;84.13;101798.91;5072009;28;20024;-72
2022/05/18 03:04:21;;;;;;;10.85;8.13;;;;;;;14.98;84.16;101806.91;5071959;28;20097;-72
2022/05/18 03:06:47;;;;;;;14.82;8.05;;;;;;;14.95;84.60;101806.13;5072127;28;20412;-72
2022/05/18 03:09:12;;;;;;;12.75;8.55;;;;;;;14.98;84.65;101813.94;5071306;28;20078;-72
2022/05/18 03:11:38;;;;;;;13.93;8.93;;;;;;;14.93;84.54;101810.56;5072062;28;20475;-70
2022/05/18 03:14:04;;;;;;;13.40;8.98;;;;;;;14.96;84.54;101815.72;5072444;28;20016;-71
2022/05/18 03:16:30;;;;;;;13.40;9.00;;;;;;;14.96;84.91;101816.59;5071292;28;20425;-71
2022/05/18 03:18:56;;;;;;;13.95;9.30;;;;;;;14.91;84.91;101822.84;5072303;28;20024;-71
2022/05/18 03:24:07;;;;;;;;;;;;;;;15.00;81.87;101827.88;5073200;28;20054;-71
2022/05/18 03:26:33;;;;;;;15.50;8.77;;;;;;;14.97;84.87;101834.06;5071720;28;19912;-71
2022/05/18 03:28:58;;;;;;;15.13;9.07;;;;;;;14.96;85.08;101831.47;5071522;28;20055;-71
2022/05/18 03:31:25;;;;;;;14.20;8.65;;;;;;;14.96;85.16;101826.22;5071804;28;20029;-71
2022/05/18 03:33:51;;;;;;;12.70;8.68;;;;;;;14.90;85.85;101829.88;5071713;28;20098;-71
2022/05/18 03:36:17;;;;;;;12.75;9.23;;;;;;;14.92;85.64;101835.09;5070801;28;20023;-71
2022/05/18 03:38:44;;;;;;;14.85;9.00;;;;;;;14.93;85.90;101836.81;5071858;28;20020;-70
2022/05/18 03:41:10;;;;;;;15.93;9.35;;;;;;;14.92;86.00;101838.59;5071701;28;20518;-70
2022/05/18 03:43:36;;;;;;;12.18;8.88;;;;;;;14.89;86.36;101843.06;5070932;28;20134;-71
2022/05/18 03:46:03;;;;;;;14.60;9.98;;;;;;;14.91;86.32;101838.59;5072063;28;20063;-71
2022/05/18 03:48:29;;;;;;;11.60;8.70;;;;;;;14.91;86.66;101843.84;5071712;28;20111;-70
2022/05/18 03:50:56;;;;;;;12.48;9.32;;;;;;;14.96;86.96;101849.88;5070775;28;20024;-70
2022/05/18 03:53:21;;;;;;;11.18;8.70;;;;;;;14.98;87.13;101850.69;5071723;28;20430;-70
2022/05/18 03:55:46;;;;;;;13.23;9.20;;;;;;;15.06;87.20;101856.59;5071635;28;20066;-70
2022/05/18 03:58:13;;;;;;;12.93;9.73;;;;;;;15.10;87.61;101850.34;5070948;28;20031;-71
2022/05/18 04:00:41;;;;;;;12.90;8.52;;;;;;;15.18;87.18;101837.91;5071493;28;20032;-71
2022/05/18 04:03:08;;;;;;;14.77;9.40;;;;;;;15.16;87.03;101828.34;5071626;28;20058;-70
2022/05/18 04:05:37;;;;;;;16.60;9.13;;;;;;;15.34;86.78;101832.25;5070364;28;20115;-70
2022/05/18 04:08:02;;;;;;;13.27;9.02;;;;;;;15.46;86.18;101838.00;5071883;28;20051;-71
2022/05/18 04:10:27;;;;;;;12.82;8.90;;;;;;;15.57;86.00;101837.72;5071335;28;20024;-71
2022/05/18 04:12:53;;;;;;;13.30;9.10;;;;;;;15.66;85.71;101834.84;5070686;28;20043;-71
2022/05/18 04:15:18;;;;;;;14.93;8.93;;;;;;;15.79;84.77;101837.97;5071872;28;20021;-70
2022/05/18 04:17:45;;;;;;;10.85;8.68;;;;;;;15.89;84.82;101834.19;5071285;28;20071;-71
2022/05/18 04:20:17;;;;;;;14.30;8.73;;;;;;;15.99;84.40;101839.13;5070846;28;20032;-70
2022/05/18 04:22:43;;;;;;;11.50;7.90;;;;;;;16.07;83.59;101845.03;5071448;28;20075;-71
2022/05/18 04:25:10;;;;;;;11.70;8.40;;;;;;;16.22;83.58;101843.69;5070793;28;20040;-71
2022/05/18 04:27:36;;;;;;;10.40;7.97;;;;;;;16.34;83.17;101844.16;5071260;28;20032;-71
2022/05/18 04:30:05;;;;;;;12.77;7.80;;;;;;;16.41;82.30;101836.94;5071609;28;20024;-71
2022/05/18 04:32:30;;;;;;;8.25;6.93;;;;;;;16.53;81.20;101841.81;5070183;28;20068;-71
2022/05/18 04:34:55;;;;;;;11.07;7.75;;;;;;;16.60;82.08;101847.75;5074547;28;20064;-70
2022/05/18 04:37:21;;;;;;;9.70;6.40;;;;;;;16.66;81.31;101857.22;5075164;28;20043;-70
2022/05/18 04:39:46;;;;;;;19.50;8.00;;;;;;;16.66;81.26;101850.19;5074000;28;20029;-71
2022/05/18 04:42:13;;;;;;;13.43;7.15;;;;;;;16.66;81.49;101863.34;5075052;28;20028;-70
2022/05/18 04:44:39;;;;;;;10.57;6.47;;;;;;;16.70;80.85;101861.47;5074818;28;20028;-71
2022/05/18 04:47:05;;;;;;;8.55;6.40;;;;;;;16.75;80.16;101864.84;5074234;28;20025;-71
2022/05/18 04:49:30;;;;;;;10.25;6.47;;;;;;;16.82;80.09;101867.22;5074908;28;20055;-71
2022/05/18 04:51:56;;;;;;;10.27;6.85;;;;;;;16.94;77.80;101871.25;5075091;28;20468;-71
2022/05/18 04:54:21;;;;;;;8.55;6.03;;;;;;;17.03;78.56;101868.28;5074147;28;20112;-71
2022/05/18 04:56:47;;;;;;;8.88;6.18;;;;;;;17.08;78.22;101863.72;5074532;28;20112;-71
2022/05/18 04:59:12;;;;;;;11.27;6.38;;;;;;;17.19;77.72;101879.16;5074521;28;20032;-71
2022/05/18 05:01:39;;;;;;;8.95;6.28;;;;;;;17.24;76.65;101884.28;5073710;28;20046;-71
2022/05/18 05:04:09;;;;;;;8.38;6.43;;;;;;;17.31;76.01;101891.91;5074631;28;20044;-71
2022/05/18 05:06:39;;;;;;;8.55;6.53;;;;;;;17.43;74.72;101887.09;5074579;28;20036;-71
2022/05/18 05:09:04;;;;;;;12.77;6.90;;;;;;;17.53;74.68;101880.63;5074117;28;20020;-71
2022/05/18 05:11:30;;;;;;;11.70;6.82;;;;;;;17.63;74.71;101887.28;5074343;28;20391;-71
2022/05/18 05:13:55;;;;;;;10.10;6.43;;;;;;;17.70;75.01;101891.41;5074570;28;20448;-71
2022/05/18 05:16:21;;;;;;;10.23;6.55;;;;;;;17.80;75.35;101889.31;5073392;28;20029;-71
2022/05/18 05:18:47;;;;;;;11.05;6.13;;;;;;;17.90;74.75;101890.69;5074399;28;20029;-71
2022/05/18 05:21:12;;;;;;;8.88;6.13;;;;;;;18.02;74.22;101899.94;5073659;28;20051;-71
2022/05/18 05:23:37;;;;;;;10.27;6.38;;;;;;;18.11;74.61;101899.56;5074215;28;20538;-71
2022/05/18 05:26:03;;;;;;;9.60;6.32;;;;;;;18.19;74.00;101900.13;5074471;28;20027;-70
2022/05/18 05:28:29;;;;;;;8.95;6.32;;;;;;;18.31;74.01;101901.47;5073399;28;20462;-71
2022/05/18 05:30:55;;;;;;;9.43;6.45;;;;;;;18.41;72.74;101902.81;5073971;28;20017;-71
2022/05/18 05:33:20;;;;;;;8.15;5.95;;;;;;;18.43;72.59;101900.09;5074233;28;20372;-71
2022/05/18 05:35:46;;;;;;;8.57;6.30;;;;;;;18.46;72.30;101899.97;5073512;28;20043;-71
2022/05/18 05:38:12;;;;;;;9.35;5.88;;;;;;;18.46;72.16;101907.91;5073838;28;20032;-71
2022/05/18 05:40:39;;;;;;;10.45;6.07;;;;;;;18.51;73.03;101908.59;5073723;28;20441;-71
2022/05/18 05:43:09;;;;;;;12.23;6.47;;;;;;;18.63;72.93;101909.88;5073367;28;20095;-71
2022/05/18 05:45:34;;;;;;;7.80;6.05;;;;;;;18.85;71.44;101902.81;5073389;28;20024;-71
2022/05/18 05:48:01;;;;;;;8.00;5.90;;;;;;;19.12;69.98;101898.16;5074158;28;20028;-71
2022/05/18 05:50:26;;;;;;;7.88;5.90;;;;;;;19.31;70.26;101908.81;5073093;28;20032;-71
2022/05/18 05:52:52;;;;;;;11.48;6.15;;;;;;;19.51;68.63;101912.38;5073743;28;20025;-71
2022/05/18 05:55:17;;;;;;;10.50;5.82;;;;;;;19.66;68.09;101926.75;5073599;28;20353;-71
2022/05/18 05:57:43;;;;;;;9.30;5.88;;;;;;;19.84;67.72;101924.13;5072737;28;20028;-71
2022/05/18 06:00:08;;;;;;;6.65;5.40;;;;;;;19.93;67.34;101933.44;5073727;28;20059;-71
2022/05/18 06:02:34;;;;;;;9.45;5.43;;;;;;;20.01;65.13;101933.06;5073119;28;20044;-71
2022/05/18 06:04:59;;;;;;;9.65;5.43;;;;;;;20.01;66.03;101928.66;5073135;28;20028;-71
2022/05/18 06:07:24;;;;;;;9.90;5.13;;;;;;;20.00;66.74;101937.50;5073411;28;20028;-71
2022/05/18 06:09:50;;;;;;;11.10;5.53;;;;;;;20.02;66.23;101926.88;5073336;28;20024;-71
2022/05/18 06:12:15;;;;;;;8.77;4.93;;;;;;;20.00;66.59;101929.56;5072528;28;20016;-71
2022/05/18 06:14:44;;;;;;;9.48;5.10;;;;;;;20.02;67.63;101934.81;5072988;28;20384;-71
2022/05/18 06:17:09;;;;;;;7.82;5.20;;;;;;;20.02;66.69;101937.47;5073311;28;20035;-71
2022/05/18 06:19:34;;;;;;;11.15;5.18;;;;;;;20.00;68.11;101937.50;5072563;28;20024;-71
2022/05/18 06:22:00;;;;;;;10.30;4.95;;;;;;;20.03;68.29;101944.47;5073434;28;20380;-71
2022/05/18 06:24:25;;;;;;;7.35;4.57;;;;;;;20.09;67.49;101952.13;5072548;28;20025;-71
2022/05/18 06:26:50;;;;;;;11.57;5.22;;;;;;;20.14;67.80;101960.69;5072615;28;20481;-71
2022/05/18 06:29:16;;;;;;;8.38;4.70;;;;;;;20.15;67.94;101959.78;5072788;28;20070;-71
2022/05/18 06:31:41;;;;;;;6.82;4.97;;;;;;;20.22;67.31;101963.88;5072256;28;20028;-71
2022/05/18 06:34:06;;;;;;;10.30;5.20;;;;;;;20.24;66.02;101956.72;5073121;28;20036;-71
2022/05/18 06:36:34;;;;;;;7.55;5.15;;;;;;;20.31;66.29;101963.44;5072388;28;20067;-71
2022/05/18 06:38:59;;;;;;;10.52;5.40;;;;;;;20.33;65.21;101961.56;5072355;28;20028;-71
2022/05/18 06:41:24;;;;;;;8.73;4.93;;;;;;;20.37;65.33;101958.78;5072571;28;20073;-77
2022/05/18 06:43:56;;;;;;;10.30;5.88;;;;;;;20.42;65.14;101968.25;5072564;28;20028;-77
2022/05/18 06:46:23;;;;;;;9.18;5.03;;;;;;;20.44;65.11;101961.09;5071956;28;20025;-71
2022/05/18 06:48:48;;;;;;;11.27;5.38;;;;;;;20.49;64.48;101966.16;5072567;28;20178;-71
2022/05/18 06:51:20;;;;;;;12.32;5.63;;;;;;;20.52;63.85;101974.00;5072656;28;20484;-71
2022/05/18 06:53:46;;;;;;;10.02;5.53;;;;;;;20.54;65.65;101965.06;5071806;28;20024;-71
2022/05/18 06:56:12;;;;;;;8.43;4.78;;;;;;;20.63;64.55;101962.88;5071534;28;20044;-71
2022/05/18 06:58:37;;;;;;;15.55;6.78;;;;;;;20.64;61.26;101965.47;5072443;28;20063;-71
2022/05/18 07:01:04;;;;;;;11.02;5.65;;;;;;;20.60;63.49;101982.47;5071965;28;20025;-71
2022/05/18 07:03:29;;;;;;;14.80;6.03;;;;;;;20.57;63.93;101975.50;5072117;28;20055;-71
2022/05/18 07:05:55;;;;;;;10.32;5.53;;;;;;;20.76;64.06;101982.56;5072273;28;20024;-71
2022/05/18 07:08:20;;;;;;;9.38;6.22;;;;;;;21.17;62.80;101983.19;5071380;28;20537;-71
2022/05/18 07:10:45;;;;;;;14.10;7.88;;;;;;;21.42;60.95;101990.81;5071954;28;20056;-71
2022/05/18 07:13:16;;;;;;;17.52;8.43;;;;;;;21.50;60.10;101998.38;5072230;28;20494;-71
2022/05/18 07:15:42;;;;;;;16.25;8.23;;;;;;;21.48;61.54;101993.16;5071488;28;20029;-71
2022/05/18 07:18:07;;;;;;;15.18;8.55;;;;;;;21.53;61.45;101998.22;5072212;28;20028;-71
2022/05/18 07:20:32;;;;;;;14.95;8.50;;;;;;;21.51;61.99;101989.47;5071726;28;20068;-71
2022/05/18 07:22:58;;;;;;;14.70;9.25;;;;;;;21.55;60.85;101999.00;5071532;28;20074;-71
2022/05/18 07:25:23;;;;;;;19.00;9.60;;;;;;;21.58;60.10;101990.88;5071860;28;20062;-71
2022/05/18 07:27:48;;;;;;;19.55;8.90;;;;;;;21.57;62.12;101998.91;5071022;28;20115;-71
2022/05/18 07:30:15;;;;;;;22.23;8.63;;;;;;;21.49;61.75;101986.91;5071902;28;20036;-71
2022/05/18 07:32:41;;;;;;;18.00;9.05;;;;;;;21.57;62.67;102004.22;5071864;28;20078;-71
2022/05/18 07:35:06;;;;;;;24.38;8.88;;;;;;;21.59;62.86;102003.22;5071321;28;20103;-71
2022/05/18 07:37:32;;;;;;;28.15;7.97;;;;;;;21.62;61.95;102003.06;5071451;28;20464;-71
2022/05/18 07:39:57;;;;;;;17.08;7.25;;;;;;;21.51;62.32;101997.41;5071875;28;20033;-71
2022/05/18 07:42:23;;;;;;;24.60;9.23;;;;;;;21.43;61.14;102003.13;5070938;28;20028;-71
2022/05/18 07:44:48;;;;;;;28.45;8.60;;;;;;;21.22;62.54;102004.16;5071813;28;20491;-71
2022/05/18 07:47:13;;;;;;;23.70;9.55;;;;;;;21.11;63.22;102010.00;5071751;28;20065;-71
2022/05/18 07:49:41;;;;;;;18.02;8.80;;;;;;;21.09;63.04;102001.28;5071014;28;20025;-71
2022/05/18 07:52:07;;;;;;;13.65;8.13;;;;;;;21.27;63.70;102012.75;5071921;28;20069;-71
2022/05/18 07:54:33;;;;;;;21.75;8.20;;;;;;;21.37;63.16;102007.88;5071166;28;20098;-71
2022/05/18 07:56:59;;;;;;;17.13;8.70;;;;;;;21.57;62.14;102006.88;5071414;28;20108;-71
2022/05/18 07:59:25;;;;;;;18.30;9.00;;;;;;;21.90;61.17;102015.72;5071737;28;20442;-71
2022/05/18 08:01:51;;;;;;;16.38;8.65;;;;;;;22.11;61.50;102018.22;5071562;28;20032;-71
2022/05/18 08:04:16;;;;;;;17.80;8.70;;;;;;;22.18;61.16;102017.81;5070459;28;20036;-71
2022/05/18 08:06:42;;;;;;;17.65;8.75;;;;;;;22.31;60.88;102018.00;5071561;28;20032;-71
2022/05/18 08:09:08;;;;;;;13.13;8.23;;;;;;;22.43;62.11;102021.78;5075018;28;20044;-71
2022/05/18 08:17:02;;;;;;;14.68;8.48;;;;;;;21.97;63.06;102022.47;5075257;28;20043;-71
2022/05/18 08:19:29;;;;;;;12.15;7.40;;;;;;;21.94;63.74;102019.06;5075392;28;20032;-72
2022/05/18 08:21:54;;;;;;;10.80;8.20;;;;;;;22.14;62.78;102018.91;5075574;28;20029;-71
2022/05/18 08:24:19;;;;;;;11.38;7.47;;;;;;;22.27;63.89;102015.59;5074657;28;20099;-71
2022/05/18 08:26:45;;;;;;;13.30;9.35;;;;;;;22.43;61.84;102019.13;5075337;28;20032;-71
2022/05/18 08:29:10;;;;;;;17.92;9.45;;;;;;;22.51;60.44;102030.22;5075227;28;20033;-72
2022/05/18 08:31:36;;;;;;;15.80;9.52;;;;;;;22.56;61.57;102024.63;5074384;28;20033;-71
2022/05/18 08:34:01;;;;;;;14.68;9.30;;;;;;;22.57;62.27;102029.03;5075347;28;20028;-71
2022/05/18 08:36:27;;;;;;;11.70;8.90;;;;;;;22.70;62.47;102032.72;5074825;28;20027;-72
2022/05/18 08:38:54;;;;;;;14.45;8.52;;;;;;;22.76;62.44;102029.72;5074388;28;20434;-71
2022/05/18 08:41:26;;;;;;;11.85;8.75;;;;;;;22.83;61.71;102033.75;5075043;28;20032;-71
2022/05/18 08:44:00;;;;;;;14.70;9.07;;;;;;;22.94;60.99;102027.84;5074883;28;20039;-71
2022/05/18 08:47:05;;;;;;;13.05;8.55;;;;;;;23.00;59.83;102030.16;5074070;28;20081;-71
2022/05/18 08:49:50;;;;;;;13.88;7.68;;;;;;;23.03;61.74;102035.31;5074762;28;20033;-71
2022/05/18 08:52:39;;;;;;;13.07;7.72;;;;;;;23.21;60.65;102032.53;5074068;28;20029;-71
2022/05/18 08:55:26;;;;;;;12.73;8.52;;;;;;;23.24;59.29;102033.19;5074866;28;20050;-71
2022/05/18 08:57:54;;;;;;;12.10;7.22;;;;;;;23.35;60.72;102028.13;5074664;28;20033;-71
2022/05/18 09:00:27;;;;;;;10.85;7.05;;;;;;;23.44;59.46;102042.66;5073966;28;20021;-71
2022/05/18 09:03:00;;;;;;;11.07;7.10;;;;;;;23.50;59.64;102031.66;5074403;28;20044;-71
2022/05/18 09:05:34;;;;;;;9.60;6.70;;;;;;;23.55;58.97;102029.59;5074497;28;20498;-72
2022/05/18 09:08:14;;;;;;;11.57;6.95;;;;;;;23.58;58.68;102034.75;5074265;28;20079;-71
2022/05/18 09:10:47;;;;;;;11.32;7.82;;;;;;;23.62;59.39;102034.56;5074382;28;20381;-72
2022/05/18 09:13:13;;;;;;;9.20;6.80;;;;;;;23.79;60.24;102037.09;5074061;28;20472;-72
2022/05/18 09:16:00;;;;;;;11.23;7.10;;;;;;;23.82;59.07;102034.25;5074048;28;20157;-71
2022/05/18 09:18:44;;;;;;;11.82;8.25;;;;;;;23.90;57.87;102034.63;5074293;28;20040;-71
2022/05/18 09:21:18;;;;;;;11.25;8.05;;;;;;;23.76;57.31;102037.28;5073233;28;20044;-72
2022/05/18 09:23:54;;;;;;;8.40;6.40;;;;;;;23.56;58.90;102036.63;5074173;28;20047;-72
2022/05/18 09:26:38;;;;;;;12.70;7.68;;;;;;;23.58;58.79;102039.22;5074098;28;20055;-71
2022/05/18 09:29:29;;;;;;;13.18;7.90;;;;;;;23.53;58.10;102035.97;5073757;28;20032;-71
2022/05/18 09:32:07;;;;;;;15.60;8.00;;;;;;;23.66;57.56;102036.94;5073957;28;20481;-72
2022/05/18 09:34:38;;;;;;;13.65;8.35;;;;;;;23.94;58.26;102036.19;5072832;28;20028;-72
2022/05/18 09:37:31;;;;;;;11.07;8.23;;;;;;;24.18;56.43;102041.78;5074300;28;20034;-72
2022/05/18 09:40:15;;;;;;;9.95;7.38;;;;;;;24.44;56.97;102029.53;5074367;28;20031;-72
2022/05/18 09:42:46;;;;;;;9.35;6.38;;;;;;;24.68;53.86;102035.09;5073178;28;20032;-72
2022/05/18 09:45:16;;;;;;;8.82;5.78;;;;;;;25.01;53.46;102033.88;5073727;28;20031;-71
2022/05/18 09:47:47;;;;;;;8.85;4.72;;;;;;;25.03;52.37;102025.78;5073933;28;20028;-72
2022/05/18 09:50:13;;;;;;;6.97;3.80;;;;;;;25.12;54.31;102030.56;5073075;28;20020;-72
2022/05/18 09:52:43;;;;;;;6.38;4.55;;;;;;;25.11;52.92;102024.28;5073710;28;20102;-72
2022/05/18 09:55:14;;;;;;;5.82;4.22;;;;;;;25.22;52.80;102032.50;5073916;28;20030;-72
2022/05/18 09:57:50;;;;;;;9.65;4.00;;;;;;;25.31;54.05;102031.03;5072715;28;20665;-72
2022/05/18 10:00:19;;;;;;;7.30;4.60;;;;;;;25.10;52.37;102027.09;5073695;28;20033;-72
2022/05/18 10:08:52;;;;;;;6.10;3.72;;;;;;;25.17;53.57;102045.28;5073481;28;20499;-72
2022/05/18 10:11:21;;;;;;;7.10;3.10;;;;;;;25.16;52.55;102037.38;5052494;28;20044;-72
2022/05/18 10:14:07;;;;;;;5.43;2.88;;;;;;;25.29;52.02;102038.28;5073264;28;20025;-72
2022/05/18 10:16:38;;;;;;;7.43;3.20;;;;;;;25.36;50.06;102034.22;5072341;28;20029;-72
2022/05/18 10:19:04;;;;;;;4.85;2.45;;;;;;;25.36;50.38;102042.25;5073451;28;20124;-72
2022/05/18 10:21:38;;;;;;;5.57;2.75;;;;;;;25.50;48.59;102024.44;5073267;28;20024;-72
2022/05/18 10:24:09;;;;;;;6.25;2.75;;;;;;;25.46;48.03;102027.31;5072566;28;20071;-72
2022/05/18 10:26:40;;;;;;;3.97;2.50;;;;;;;25.57;48.73;102023.94;5072878;28;20031;-72
2022/05/18 10:29:27;;;;;;;4.45;2.47;;;;;;;25.61;49.04;102027.25;5073426;28;20058;-72
2022/05/18 10:32:09;;;;;;;5.03;2.88;;;;;;;25.80;50.08;102037.50;5070588;28;20040;-72
2022/05/18 10:34:44;;;;;;;5.78;2.70;;;;;;;25.89;49.66;102035.06;5072838;28;20413;-72
2022/05/18 10:37:12;;;;;;;9.70;3.88;;;;;;;26.02;46.47;102036.91;5072675;28;20029;-72
2022/05/18 10:39:40;;;;;;;6.45;3.58;;;;;;;25.97;47.62;102031.91;5071776;28;20021;-72
2022/05/18 10:42:12;;;;;;;5.07;2.92;;;;;;;26.24;47.51;102023.75;5073087;28;20107;-72
2022/05/18 10:44:37;;;;;;;9.10;3.55;;;;;;;26.46;47.43;102020.38;5072450;28;20029;-72
2022/05/18 10:47:17;;;;;;;5.50;3.47;;;;;;;26.65;48.25;102014.59;5072300;28;20024;-72
2022/05/18 10:49:44;;;;;;;6.60;2.85;;;;;;;26.83;46.87;102007.88;5072283;28;20031;-72
2022/05/18 10:52:28;;;;;;;10.87;4.10;;;;;;;26.94;47.75;102011.56;5120365;27;1183092;-72
2022/05/18 10:54:59;;;;;;;9.18;3.55;;;;;;;26.87;45.77;102011.19;5130283;27;20154;-72
2022/05/18 10:57:34;;;;;;;5.90;3.28;;;;;;;27.15;47.43;102012.69;5130174;27;20072;-72
2022/05/18 11:00:17;;;;;;;6.07;4.82;;;;;;;27.36;46.15;102012.03;5129662;27;20102;-72
2022/05/18 11:02:51;;;;;;;7.50;4.72;;;;;;;27.40;45.60;102002.78;5129933;27;20383;-72
2022/05/18 11:05:21;;;;;;;6.03;4.18;;;;;;;27.29;45.21;102008.97;5130103;27;20099;-73
2022/05/18 11:07:46;;;;;;;6.15;3.65;;;;;;;27.46;44.72;102008.53;5129097;27;20060;-72
2022/05/18 11:10:13;;;;;;;5.85;2.90;;;;;;;27.81;44.87;102006.81;5129820;27;20028;-72
2022/05/18 11:12:46;;;;;;;6.68;3.28;;;;;;;27.81;42.94;102007.66;5129662;27;20387;-72
2022/05/18 11:15:31;;;;;;;6.68;3.60;;;;;;;27.56;44.04;102006.00;5129536;27;20043;-72
2022/05/18 11:18:28;;;;;;;9.05;3.63;;;;;;;27.53;44.93;102009.78;5130166;27;20023;-72
2022/05/18 11:21:12;;;;;;;9.30;4.10;;;;;;;27.85;45.17;102010.94;5117361;28;20093;-72
2022/05/18 11:23:48;;;;;;;7.40;3.53;;;;;;;28.12;46.31;101998.06;5129634;27;20020;-73
2022/05/18 11:26:24;;;;;;;6.35;3.35;;;;;;;28.39;43.93;101992.34;5129703;28;20073;-72
2022/05/18 11:29:08;;;;;;;4.95;2.97;;;;;;;28.63;45.83;101996.66;5128816;27;20467;-72
2022/05/18 11:32:01;;;;;;;6.28;4.07;;;;;;;28.61;43.96;102004.84;5129317;28;20031;-73
2022/05/18 11:34:32;;;;;;;5.90;3.72;;;;;;;28.49;43.35;101999.63;5128901;28;20119;-73
2022/05/18 11:37:34;;;;;;;6.45;3.15;;;;;;;28.73;44.35;101994.09;5129660;28;20379;-72
2022/05/18 11:40:13;;;;;;;5.25;3.50;;;;;;;29.42;42.79;101989.16;5129777;28;20024;-73
2022/05/18 11:43:30;;;;;;;4.88;3.30;;;;;;;29.42;40.88;101986.47;5128575;27;20027;-72
2022/05/18 11:46:33;;;;;;;7.18;3.30;;;;;;;29.44;41.92;101976.47;5129373;27;20508;-73